sensor_id;sensor_type;location;lat;lon;timestamp;temperature;humidity
12700;DHT22;6414;49.570;6.060;2023-05-07T00:00:24;12.60;99.90
12700;DHT22;6414;49.570;6.060;2023-05-07T00:03:10;12.50;99.90
12700;DHT22;6414;49.570;6.060;2023-05-07T00:05:56;12.50;99.90
12700;DHT22;6414;49.570;6.060;2023-05-07T00:08:42;12.40;99.90
12700;DHT22;6414;49.570;6.060;2023-05-07T00:11:29;12.50;99.90
12700;DHT22;6414;49.570;6.060;2023-05-07T00:14:16;12.50;99.90
12700;DHT22;6414;49.570;6.060;2023-05-07T00:17:02;12.50;99.90
12700;DHT22;6414;49.570;6.060;2023-05-07T00:19:49;12.40;99.90
12700;DHT22;6414;49.570;6.060;2023-05-07T00:22:35;12.50;99.90
12700;DHT22;6414;49.570;6.060;2023-05-07T00:25:21;12.40;99.90
12700;DHT22;6414;49.570;6.060;2023-05-07T00:28:07;12.30;99.90
12700;DHT22;6414;49.570;6.060;2023-05-07T00:30:53;12.30;99.90
12700;DHT22;6414;49.570;6.060;2023-05-07T00:33:39;12.30;99.90
12700;DHT22;6414;49.570;6.060;2023-05-07T00:36:25;12.20;99.90
12700;DHT22;6414;49.570;6.060;2023-05-07T00:39:11;12.30;99.90
12700;DHT22;6414;49.570;6.060;2023-05-07T00:41:57;12.30;99.90
12700;DHT22;6414;49.570;6.060;2023-05-07T00:44:45;12.20;99.90
12700;DHT22;6414;49.570;6.060;2023-05-07T00:47:32;12.20;99.90
12700;DHT22;6414;49.570;6.060;2023-05-07T00:50:18;12.20;99.90
12700;DHT22;6414;49.570;6.060;2023-05-07T00:53:04;12.20;99.90
12700;DHT22;6414;49.570;6.060;2023-05-07T00:55:50;12.10;99.90
12700;DHT22;6414;49.570;6.060;2023-05-07T00:58:36;12.10;99.90
12700;DHT22;6414;49.570;6.060;2023-05-07T01:01:23;12.00;99.90
12700;DHT22;6414;49.570;6.060;2023-05-07T01:04:09;11.90;99.90
12700;DHT22;6414;49.570;6.060;2023-05-07T01:06:55;11.90;99.90
12700;DHT22;6414;49.570;6.060;2023-05-07T01:09:41;11.90;99.90
12700;DHT22;6414;49.570;6.060;2023-05-07T01:12:28;11.80;99.90
12700;DHT22;6414;49.570;6.060;2023-05-07T01:15:13;11.70;99.90
12700;DHT22;6414;49.570;6.060;2023-05-07T01:18:00;11.60;99.90
12700;DHT22;6414;49.570;6.060;2023-05-07T01:20:46;11.60;99.90
12700;DHT22;6414;49.570;6.060;2023-05-07T01:23:33;11.60;99.90
12700;DHT22;6414;49.570;6.060;2023-05-07T01:26:19;11.60;99.90
12700;DHT22;6414;49.570;6.060;2023-05-07T01:29:05;11.40;99.90
12700;DHT22;6414;49.570;6.060;2023-05-07T01:31:51;11.40;99.90
12700;DHT22;6414;49.570;6.060;2023-05-07T01:34:38;11.40;99.90
12700;DHT22;6414;49.570;6.060;2023-05-07T01:37:24;11.50;99.90
12700;DHT22;6414;49.570;6.060;2023-05-07T01:40:10;11.40;99.90
12700;DHT22;6414;49.570;6.060;2023-05-07T01:42:56;11.30;99.90
12700;DHT22;6414;49.570;6.060;2023-05-07T01:45:43;11.50;99.90
12700;DHT22;6414;49.570;6.060;2023-05-07T01:48:29;11.60;99.90
12700;DHT22;6414;49.570;6.060;2023-05-07T01:51:15;11.70;99.90
12700;DHT22;6414;49.570;6.060;2023-05-07T01:54:02;11.60;99.90
12700;DHT22;6414;49.570;6.060;2023-05-07T01:56:48;11.30;99.90
12700;DHT22;6414;49.570;6.060;2023-05-07T01:59:34;11.20;99.90
12700;DHT22;6414;49.570;6.060;2023-05-07T02:02:20;11.20;99.90
12700;DHT22;6414;49.570;6.060;2023-05-07T02:05:06;11.30;99.90
12700;DHT22;6414;49.570;6.060;2023-05-07T02:07:52;11.50;99.90
12700;DHT22;6414;49.570;6.060;2023-05-07T02:10:38;11.60;99.90
12700;DHT22;6414;49.570;6.060;2023-05-07T02:13:26;11.60;99.90
12700;DHT22;6414;49.570;6.060;2023-05-07T02:16:11;11.60;99.90
12700;DHT22;6414;49.570;6.060;2023-05-07T02:18:56;11.60;99.90
12700;DHT22;6414;49.570;6.060;2023-05-07T02:21:42;11.60;99.90
12700;DHT22;6414;49.570;6.060;2023-05-07T02:24:29;11.60;99.90
12700;DHT22;6414;49.570;6.060;2023-05-07T02:27:15;11.50;99.90
12700;DHT22;6414;49.570;6.060;2023-05-07T02:30:00;11.50;99.90
12700;DHT22;6414;49.570;6.060;2023-05-07T02:32:46;11.50;99.90
12700;DHT22;6414;49.570;6.060;2023-05-07T02:35:32;11.30;99.90
12700;DHT22;6414;49.570;6.060;2023-05-07T02:38:18;11.30;99.90
12700;DHT22;6414;49.570;6.060;2023-05-07T02:41:04;11.20;99.90
12700;DHT22;6414;49.570;6.060;2023-05-07T02:43:50;11.20;99.90
12700;DHT22;6414;49.570;6.060;2023-05-07T02:46:36;11.30;99.90
12700;DHT22;6414;49.570;6.060;2023-05-07T02:49:22;11.30;99.90
12700;DHT22;6414;49.570;6.060;2023-05-07T02:52:08;11.30;99.90
12700;DHT22;6414;49.570;6.060;2023-05-07T02:54:55;11.10;99.90
12700;DHT22;6414;49.570;6.060;2023-05-07T02:57:41;11.10;99.90
12700;DHT22;6414;49.570;6.060;2023-05-07T03:00:27;10.90;99.90
12700;DHT22;6414;49.570;6.060;2023-05-07T03:03:14;10.70;99.90
12700;DHT22;6414;49.570;6.060;2023-05-07T03:05:59;10.70;99.90
12700;DHT22;6414;49.570;6.060;2023-05-07T03:08:46;10.70;99.90
12700;DHT22;6414;49.570;6.060;2023-05-07T03:11:32;10.70;99.90
12700;DHT22;6414;49.570;6.060;2023-05-07T03:14:18;10.70;99.90
12700;DHT22;6414;49.570;6.060;2023-05-07T03:17:04;10.70;99.90
12700;DHT22;6414;49.570;6.060;2023-05-07T03:19:51;10.60;99.90
12700;DHT22;6414;49.570;6.060;2023-05-07T03:22:37;10.70;99.90
12700;DHT22;6414;49.570;6.060;2023-05-07T03:25:23;10.70;99.90
12700;DHT22;6414;49.570;6.060;2023-05-07T03:28:10;10.50;99.90
12700;DHT22;6414;49.570;6.060;2023-05-07T03:30:56;10.50;99.90
12700;DHT22;6414;49.570;6.060;2023-05-07T03:33:56;10.50;99.90
12700;DHT22;6414;49.570;6.060;2023-05-07T03:36:40;10.50;99.90
12700;DHT22;6414;49.570;6.060;2023-05-07T03:39:27;10.30;99.90
12700;DHT22;6414;49.570;6.060;2023-05-07T03:42:14;10.30;99.90
12700;DHT22;6414;49.570;6.060;2023-05-07T03:44:59;10.10;99.90
12700;DHT22;6414;49.570;6.060;2023-05-07T03:47:46;9.90;99.90
12700;DHT22;6414;49.570;6.060;2023-05-07T03:50:32;9.70;99.90
12700;DHT22;6414;49.570;6.060;2023-05-07T03:53:18;9.60;99.90
12700;DHT22;6414;49.570;6.060;2023-05-07T03:56:05;9.60;99.90
12700;DHT22;6414;49.570;6.060;2023-05-07T03:58:51;9.70;99.90
12700;DHT22;6414;49.570;6.060;2023-05-07T04:01:37;9.60;99.90
12700;DHT22;6414;49.570;6.060;2023-05-07T04:04:23;9.60;99.90
12700;DHT22;6414;49.570;6.060;2023-05-07T04:07:09;9.60;99.90
12700;DHT22;6414;49.570;6.060;2023-05-07T04:09:55;9.70;99.90
12700;DHT22;6414;49.570;6.060;2023-05-07T04:12:41;9.90;99.90
12700;DHT22;6414;49.570;6.060;2023-05-07T04:15:28;10.10;99.90
12700;DHT22;6414;49.570;6.060;2023-05-07T04:18:14;10.30;99.90
12700;DHT22;6414;49.570;6.060;2023-05-07T04:21:00;10.50;99.90
12700;DHT22;6414;49.570;6.060;2023-05-07T04:23:46;10.70;99.90
12700;DHT22;6414;49.570;6.060;2023-05-07T04:26:32;10.80;99.90
12700;DHT22;6414;49.570;6.060;2023-05-07T04:29:18;10.80;99.90
12700;DHT22;6414;49.570;6.060;2023-05-07T04:32:05;10.80;99.90
12700;DHT22;6414;49.570;6.060;2023-05-07T04:34:51;10.70;99.90
12700;DHT22;6414;49.570;6.060;2023-05-07T04:37:37;10.70;99.90
12700;DHT22;6414;49.570;6.060;2023-05-07T04:40:23;10.50;99.90
12700;DHT22;6414;49.570;6.060;2023-05-07T04:43:10;10.40;99.90
12700;DHT22;6414;49.570;6.060;2023-05-07T04:45:56;10.40;99.90
12700;DHT22;6414;49.570;6.060;2023-05-07T04:48:43;10.60;99.90
12700;DHT22;6414;49.570;6.060;2023-05-07T04:51:30;10.60;99.90
12700;DHT22;6414;49.570;6.060;2023-05-07T04:54:16;10.60;99.90
12700;DHT22;6414;49.570;6.060;2023-05-07T04:57:06;10.60;99.90
12700;DHT22;6414;49.570;6.060;2023-05-07T04:59:48;10.60;99.90
12700;DHT22;6414;49.570;6.060;2023-05-07T05:02:34;10.50;99.90
12700;DHT22;6414;49.570;6.060;2023-05-07T05:05:20;10.50;99.90
12700;DHT22;6414;49.570;6.060;2023-05-07T05:08:06;10.50;99.90
12700;DHT22;6414;49.570;6.060;2023-05-07T05:10:53;10.50;99.90
12700;DHT22;6414;49.570;6.060;2023-05-07T05:13:39;10.70;99.90
12700;DHT22;6414;49.570;6.060;2023-05-07T05:16:25;10.70;99.90
12700;DHT22;6414;49.570;6.060;2023-05-07T05:19:11;10.80;99.90
12700;DHT22;6414;49.570;6.060;2023-05-07T05:21:57;10.80;99.90
12700;DHT22;6414;49.570;6.060;2023-05-07T05:24:43;10.80;99.90
12700;DHT22;6414;49.570;6.060;2023-05-07T05:27:29;10.90;99.90
12700;DHT22;6414;49.570;6.060;2023-05-07T05:30:15;11.10;99.90
12700;DHT22;6414;49.570;6.060;2023-05-07T05:33:02;11.20;99.90
12700;DHT22;6414;49.570;6.060;2023-05-07T05:35:49;11.30;99.90
12700;DHT22;6414;49.570;6.060;2023-05-07T05:38:34;11.30;99.90
12700;DHT22;6414;49.570;6.060;2023-05-07T05:41:21;11.40;99.90
12700;DHT22;6414;49.570;6.060;2023-05-07T05:44:08;11.30;99.90
12700;DHT22;6414;49.570;6.060;2023-05-07T05:46:54;11.40;99.90
12700;DHT22;6414;49.570;6.060;2023-05-07T05:49:40;11.40;99.90
12700;DHT22;6414;49.570;6.060;2023-05-07T05:52:26;11.60;99.90
12700;DHT22;6414;49.570;6.060;2023-05-07T05:55:12;11.70;99.90
12700;DHT22;6414;49.570;6.060;2023-05-07T05:57:59;11.70;99.90
12700;DHT22;6414;49.570;6.060;2023-05-07T06:00:44;11.80;99.90
12700;DHT22;6414;49.570;6.060;2023-05-07T06:03:30;11.90;99.90
12700;DHT22;6414;49.570;6.060;2023-05-07T06:06:17;12.00;99.90
12700;DHT22;6414;49.570;6.060;2023-05-07T06:09:03;12.10;99.90
12700;DHT22;6414;49.570;6.060;2023-05-07T06:11:50;12.10;99.90
12700;DHT22;6414;49.570;6.060;2023-05-07T06:14:37;12.10;99.90
12700;DHT22;6414;49.570;6.060;2023-05-07T06:17:23;12.10;99.90
12700;DHT22;6414;49.570;6.060;2023-05-07T06:20:10;12.20;99.90
12700;DHT22;6414;49.570;6.060;2023-05-07T06:22:56;12.20;99.90
12700;DHT22;6414;49.570;6.060;2023-05-07T06:25:43;12.40;99.90
12700;DHT22;6414;49.570;6.060;2023-05-07T06:28:28;12.60;99.90
12700;DHT22;6414;49.570;6.060;2023-05-07T06:31:15;12.80;99.90
12700;DHT22;6414;49.570;6.060;2023-05-07T06:34:01;12.90;99.90
12700;DHT22;6414;49.570;6.060;2023-05-07T06:36:47;12.90;99.90
12700;DHT22;6414;49.570;6.060;2023-05-07T06:39:34;12.80;99.90
12700;DHT22;6414;49.570;6.060;2023-05-07T06:42:20;12.70;99.90
12700;DHT22;6414;49.570;6.060;2023-05-07T06:45:06;12.80;99.90
12700;DHT22;6414;49.570;6.060;2023-05-07T06:47:53;12.90;99.90
12700;DHT22;6414;49.570;6.060;2023-05-07T06:50:39;13.00;99.90
12700;DHT22;6414;49.570;6.060;2023-05-07T06:53:25;13.00;99.90
12700;DHT22;6414;49.570;6.060;2023-05-07T06:56:12;13.20;99.90
12700;DHT22;6414;49.570;6.060;2023-05-07T06:58:59;13.20;99.90
12700;DHT22;6414;49.570;6.060;2023-05-07T07:01:44;13.30;99.90
12700;DHT22;6414;49.570;6.060;2023-05-07T07:04:31;13.50;99.90
12700;DHT22;6414;49.570;6.060;2023-05-07T07:07:17;13.50;99.90
12700;DHT22;6414;49.570;6.060;2023-05-07T07:10:03;13.50;99.90
12700;DHT22;6414;49.570;6.060;2023-05-07T07:12:50;13.50;99.90
12700;DHT22;6414;49.570;6.060;2023-05-07T07:15:37;13.50;99.90
12700;DHT22;6414;49.570;6.060;2023-05-07T07:18:24;13.80;99.90
12700;DHT22;6414;49.570;6.060;2023-05-07T07:21:10;13.80;99.90
12700;DHT22;6414;49.570;6.060;2023-05-07T07:23:56;14.00;99.90
12700;DHT22;6414;49.570;6.060;2023-05-07T07:26:42;14.20;99.90
12700;DHT22;6414;49.570;6.060;2023-05-07T07:29:28;14.40;99.90
12700;DHT22;6414;49.570;6.060;2023-05-07T07:32:14;14.50;99.90
12700;DHT22;6414;49.570;6.060;2023-05-07T07:35:01;14.40;99.90
12700;DHT22;6414;49.570;6.060;2023-05-07T07:37:48;14.50;99.90
12700;DHT22;6414;49.570;6.060;2023-05-07T07:40:35;14.60;99.90
12700;DHT22;6414;49.570;6.060;2023-05-07T07:43:21;14.60;99.90
12700;DHT22;6414;49.570;6.060;2023-05-07T07:46:07;14.80;99.90
12700;DHT22;6414;49.570;6.060;2023-05-07T07:48:53;15.00;99.90
12700;DHT22;6414;49.570;6.060;2023-05-07T07:51:39;15.00;99.90
12700;DHT22;6414;49.570;6.060;2023-05-07T07:54:25;15.10;99.90
12700;DHT22;6414;49.570;6.060;2023-05-07T07:57:11;15.20;99.90
12700;DHT22;6414;49.570;6.060;2023-05-07T07:59:58;15.40;99.90
12700;DHT22;6414;49.570;6.060;2023-05-07T08:02:44;15.70;99.90
12700;DHT22;6414;49.570;6.060;2023-05-07T08:05:30;15.60;99.90
12700;DHT22;6414;49.570;6.060;2023-05-07T08:08:16;15.60;99.90
12700;DHT22;6414;49.570;6.060;2023-05-07T08:11:01;15.60;99.90
12700;DHT22;6414;49.570;6.060;2023-05-07T08:13:48;15.90;99.90
12700;DHT22;6414;49.570;6.060;2023-05-07T08:16:34;15.90;99.90
12700;DHT22;6414;49.570;6.060;2023-05-07T08:19:22;16.50;99.90
12700;DHT22;6414;49.570;6.060;2023-05-07T08:22:08;16.50;99.90
12700;DHT22;6414;49.570;6.060;2023-05-07T08:24:54;16.50;99.90
12700;DHT22;6414;49.570;6.060;2023-05-07T08:27:40;16.50;99.90
12700;DHT22;6414;49.570;6.060;2023-05-07T08:30:26;16.90;99.90
12700;DHT22;6414;49.570;6.060;2023-05-07T08:33:12;17.10;99.90
12700;DHT22;6414;49.570;6.060;2023-05-07T08:35:59;17.30;99.90
12700;DHT22;6414;49.570;6.060;2023-05-07T08:38:45;17.30;99.90
12700;DHT22;6414;49.570;6.060;2023-05-07T08:41:31;17.60;99.90
12700;DHT22;6414;49.570;6.060;2023-05-07T08:44:18;17.60;99.90
12700;DHT22;6414;49.570;6.060;2023-05-07T08:47:06;17.70;99.90
12700;DHT22;6414;49.570;6.060;2023-05-07T08:49:51;17.70;99.90
12700;DHT22;6414;49.570;6.060;2023-05-07T08:52:41;18.20;99.90
12700;DHT22;6414;49.570;6.060;2023-05-07T08:55:28;18.10;99.90
12700;DHT22;6414;49.570;6.060;2023-05-07T08:58:14;18.10;99.90
12700;DHT22;6414;49.570;6.060;2023-05-07T09:01:01;18.30;99.90
12700;DHT22;6414;49.570;6.060;2023-05-07T09:03:46;18.50;99.90
12700;DHT22;6414;49.570;6.060;2023-05-07T09:06:32;18.60;99.90
12700;DHT22;6414;49.570;6.060;2023-05-07T09:09:18;18.90;99.90
12700;DHT22;6414;49.570;6.060;2023-05-07T09:12:04;18.90;99.90
12700;DHT22;6414;49.570;6.060;2023-05-07T09:14:51;19.30;99.90
12700;DHT22;6414;49.570;6.060;2023-05-07T09:17:37;19.20;99.90
12700;DHT22;6414;49.570;6.060;2023-05-07T09:20:23;19.20;99.90
12700;DHT22;6414;49.570;6.060;2023-05-07T09:23:09;19.90;99.90
12700;DHT22;6414;49.570;6.060;2023-05-07T09:25:59;20.10;27.00
12700;DHT22;6414;49.570;6.060;2023-05-07T09:28:41;20.20;52.40
12700;DHT22;6414;49.570;6.060;2023-05-07T09:31:27;19.80;1.00
12700;DHT22;6414;49.570;6.060;2023-05-07T09:34:13;19.90;1.00
12700;DHT22;6414;49.570;6.060;2023-05-07T09:37:00;19.30;99.90
12700;DHT22;6414;49.570;6.060;2023-05-07T09:39:45;19.20;99.90
12700;DHT22;6414;49.570;6.060;2023-05-07T09:42:30;19.20;99.90
12700;DHT22;6414;49.570;6.060;2023-05-07T09:45:27;19.70;99.90
12700;DHT22;6414;49.570;6.060;2023-05-07T09:48:04;19.40;99.90
12700;DHT22;6414;49.570;6.060;2023-05-07T09:50:49;19.10;99.90
12700;DHT22;6414;49.570;6.060;2023-05-07T09:53:35;19.30;99.90
12700;DHT22;6414;49.570;6.060;2023-05-07T09:56:23;20.40;99.90
12700;DHT22;6414;49.570;6.060;2023-05-07T09:59:13;20.10;1.00
12700;DHT22;6414;49.570;6.060;2023-05-07T10:01:59;20.10;1.00
12700;DHT22;6414;49.570;6.060;2023-05-07T10:04:45;19.90;1.00
12700;DHT22;6414;49.570;6.060;2023-05-07T10:07:30;20.30;1.00
12700;DHT22;6414;49.570;6.060;2023-05-07T10:10:16;20.20;49.80
12700;DHT22;6414;49.570;6.060;2023-05-07T10:13:02;20.00;1.00
12700;DHT22;6414;49.570;6.060;2023-05-07T10:15:47;20.20;99.90
12700;DHT22;6414;49.570;6.060;2023-05-07T10:18:33;20.20;1.00
12700;DHT22;6414;49.570;6.060;2023-05-07T10:21:20;20.10;1.00
12700;DHT22;6414;49.570;6.060;2023-05-07T10:24:05;20.30;99.90
12700;DHT22;6414;49.570;6.060;2023-05-07T10:26:53;20.60;99.90
12700;DHT22;6414;49.570;6.060;2023-05-07T10:29:45;20.60;1.00
12700;DHT22;6414;49.570;6.060;2023-05-07T10:32:33;20.70;1.00
12700;DHT22;6414;49.570;6.060;2023-05-07T10:35:22;20.30;1.00
12700;DHT22;6414;49.570;6.060;2023-05-07T10:38:04;20.40;32.70
12700;DHT22;6414;49.570;6.060;2023-05-07T10:40:51;20.40;27.00
12700;DHT22;6414;49.570;6.060;2023-05-07T10:43:44;20.10;1.00
12700;DHT22;6414;49.570;6.060;2023-05-07T10:46:29;19.50;1.00
12700;DHT22;6414;49.570;6.060;2023-05-07T10:49:15;19.40;99.90
12700;DHT22;6414;49.570;6.060;2023-05-07T10:52:13;19.20;99.90
12700;DHT22;6414;49.570;6.060;2023-05-07T10:58:26;19.10;99.90
12700;DHT22;6414;49.570;6.060;2023-05-07T11:01:11;19.00;99.90
12700;DHT22;6414;49.570;6.060;2023-05-07T11:04:12;18.80;99.90
12700;DHT22;6414;49.570;6.060;2023-05-07T11:07:09;18.80;99.90
12700;DHT22;6414;49.570;6.060;2023-05-07T11:09:55;18.90;99.90
12700;DHT22;6414;49.570;6.060;2023-05-07T11:15:38;18.60;99.90
12700;DHT22;6414;49.570;6.060;2023-05-07T11:18:23;18.60;99.90
12700;DHT22;6414;49.570;6.060;2023-05-07T11:21:09;18.70;99.90
12700;DHT22;6414;49.570;6.060;2023-05-07T11:23:56;18.70;99.90
12700;DHT22;6414;49.570;6.060;2023-05-07T11:26:44;18.70;99.90
12700;DHT22;6414;49.570;6.060;2023-05-07T11:29:29;18.70;99.90
12700;DHT22;6414;49.570;6.060;2023-05-07T11:32:15;18.90;99.90
12700;DHT22;6414;49.570;6.060;2023-05-07T11:35:01;19.10;99.90
12700;DHT22;6414;49.570;6.060;2023-05-07T11:37:47;19.10;99.90
12700;DHT22;6414;49.570;6.060;2023-05-07T11:40:32;19.30;99.90
12700;DHT22;6414;49.570;6.060;2023-05-07T11:43:18;19.50;99.90
12700;DHT22;6414;49.570;6.060;2023-05-07T11:46:10;19.40;99.90
12700;DHT22;6414;49.570;6.060;2023-05-07T11:48:55;19.30;99.90
12700;DHT22;6414;49.570;6.060;2023-05-07T11:51:41;19.30;99.90
12700;DHT22;6414;49.570;6.060;2023-05-07T11:54:26;19.60;99.90
12700;DHT22;6414;49.570;6.060;2023-05-07T11:57:15;19.60;99.90
12700;DHT22;6414;49.570;6.060;2023-05-07T12:00:01;19.50;99.90
12700;DHT22;6414;49.570;6.060;2023-05-07T12:02:46;19.20;99.90
12700;DHT22;6414;49.570;6.060;2023-05-07T12:05:32;19.30;99.90
12700;DHT22;6414;49.570;6.060;2023-05-07T12:08:19;19.10;99.90
12700;DHT22;6414;49.570;6.060;2023-05-07T12:11:06;19.20;99.90
12700;DHT22;6414;49.570;6.060;2023-05-07T12:13:50;19.30;99.90
12700;DHT22;6414;49.570;6.060;2023-05-07T12:16:36;19.30;99.90
12700;DHT22;6414;49.570;6.060;2023-05-07T12:19:22;19.20;99.90
12700;DHT22;6414;49.570;6.060;2023-05-07T12:22:08;19.40;99.90
12700;DHT22;6414;49.570;6.060;2023-05-07T12:24:57;19.70;99.90
12700;DHT22;6414;49.570;6.060;2023-05-07T12:27:43;19.60;99.90
12700;DHT22;6414;49.570;6.060;2023-05-07T12:30:29;19.50;99.90
12700;DHT22;6414;49.570;6.060;2023-05-07T12:33:22;19.20;99.90
12700;DHT22;6414;49.570;6.060;2023-05-07T12:36:06;19.00;99.90
12700;DHT22;6414;49.570;6.060;2023-05-07T12:38:52;18.80;99.90
12700;DHT22;6414;49.570;6.060;2023-05-07T12:41:57;18.80;99.90
12700;DHT22;6414;49.570;6.060;2023-05-07T12:44:43;18.80;99.90
12700;DHT22;6414;49.570;6.060;2023-05-07T12:47:29;18.80;99.90
12700;DHT22;6414;49.570;6.060;2023-05-07T12:50:15;18.50;99.90
12700;DHT22;6414;49.570;6.060;2023-05-07T12:53:05;18.60;99.90
12700;DHT22;6414;49.570;6.060;2023-05-07T12:55:54;18.70;99.90
12700;DHT22;6414;49.570;6.060;2023-05-07T12:58:39;18.60;99.90
12700;DHT22;6414;49.570;6.060;2023-05-07T13:01:29;18.40;99.90
12700;DHT22;6414;49.570;6.060;2023-05-07T13:04:15;18.50;99.90
12700;DHT22;6414;49.570;6.060;2023-05-07T13:07:02;18.60;99.90
12700;DHT22;6414;49.570;6.060;2023-05-07T13:09:49;18.50;99.90
12700;DHT22;6414;49.570;6.060;2023-05-07T13:12:35;18.50;99.90
12700;DHT22;6414;49.570;6.060;2023-05-07T13:15:21;18.60;99.90
12700;DHT22;6414;49.570;6.060;2023-05-07T13:18:08;18.70;99.90
12700;DHT22;6414;49.570;6.060;2023-05-07T13:20:55;18.90;99.90
12700;DHT22;6414;49.570;6.060;2023-05-07T13:23:41;18.90;99.90
12700;DHT22;6414;49.570;6.060;2023-05-07T13:26:27;19.10;99.90
12700;DHT22;6414;49.570;6.060;2023-05-07T13:29:13;19.00;99.90
12700;DHT22;6414;49.570;6.060;2023-05-07T13:31:59;18.70;99.90
12700;DHT22;6414;49.570;6.060;2023-05-07T13:34:46;18.70;99.90
12700;DHT22;6414;49.570;6.060;2023-05-07T13:37:33;18.80;99.90
12700;DHT22;6414;49.570;6.060;2023-05-07T13:40:19;18.80;99.90
12700;DHT22;6414;49.570;6.060;2023-05-07T13:43:05;18.80;99.90
12700;DHT22;6414;49.570;6.060;2023-05-07T13:45:52;18.90;99.90
12700;DHT22;6414;49.570;6.060;2023-05-07T13:48:38;18.90;99.90
12700;DHT22;6414;49.570;6.060;2023-05-07T13:51:25;19.00;99.90
12700;DHT22;6414;49.570;6.060;2023-05-07T13:54:11;19.00;99.90
12700;DHT22;6414;49.570;6.060;2023-05-07T13:56:58;19.10;99.90
12700;DHT22;6414;49.570;6.060;2023-05-07T13:59:45;19.00;99.90
12700;DHT22;6414;49.570;6.060;2023-05-07T14:02:31;19.00;99.90
12700;DHT22;6414;49.570;6.060;2023-05-07T14:05:18;19.00;99.90
12700;DHT22;6414;49.570;6.060;2023-05-07T14:08:04;19.00;99.90
12700;DHT22;6414;49.570;6.060;2023-05-07T14:10:50;19.00;99.90
12700;DHT22;6414;49.570;6.060;2023-05-07T14:13:36;19.00;99.90
12700;DHT22;6414;49.570;6.060;2023-05-07T14:16:22;19.10;99.90
12700;DHT22;6414;49.570;6.060;2023-05-07T14:19:09;19.10;99.90
12700;DHT22;6414;49.570;6.060;2023-05-07T14:21:55;19.00;99.90
12700;DHT22;6414;49.570;6.060;2023-05-07T14:24:40;19.10;99.90
12700;DHT22;6414;49.570;6.060;2023-05-07T14:27:26;19.10;99.90
12700;DHT22;6414;49.570;6.060;2023-05-07T14:30:12;19.10;99.90
12700;DHT22;6414;49.570;6.060;2023-05-07T14:32:59;19.00;99.90
12700;DHT22;6414;49.570;6.060;2023-05-07T14:35:44;19.10;99.90
12700;DHT22;6414;49.570;6.060;2023-05-07T14:38:31;19.20;99.90
12700;DHT22;6414;49.570;6.060;2023-05-07T14:41:17;19.20;99.90
12700;DHT22;6414;49.570;6.060;2023-05-07T14:44:03;19.10;99.90
12700;DHT22;6414;49.570;6.060;2023-05-07T14:46:49;19.30;99.90
12700;DHT22;6414;49.570;6.060;2023-05-07T14:49:35;19.40;99.90
12700;DHT22;6414;49.570;6.060;2023-05-07T14:52:22;19.20;99.90
12700;DHT22;6414;49.570;6.060;2023-05-07T14:55:08;19.20;99.90
12700;DHT22;6414;49.570;6.060;2023-05-07T14:57:55;19.20;99.90
12700;DHT22;6414;49.570;6.060;2023-05-07T15:00:42;19.40;99.90
12700;DHT22;6414;49.570;6.060;2023-05-07T15:03:28;19.40;99.90
12700;DHT22;6414;49.570;6.060;2023-05-07T15:06:15;19.60;99.90
12700;DHT22;6414;49.570;6.060;2023-05-07T15:09:01;19.60;99.90
12700;DHT22;6414;49.570;6.060;2023-05-07T15:11:47;19.60;99.90
12700;DHT22;6414;49.570;6.060;2023-05-07T15:14:33;19.50;99.90
12700;DHT22;6414;49.570;6.060;2023-05-07T15:17:20;19.50;99.90
12700;DHT22;6414;49.570;6.060;2023-05-07T15:20:07;19.40;99.90
12700;DHT22;6414;49.570;6.060;2023-05-07T15:22:54;19.40;99.90
12700;DHT22;6414;49.570;6.060;2023-05-07T15:25:40;19.40;99.90
12700;DHT22;6414;49.570;6.060;2023-05-07T15:28:26;19.40;99.90
12700;DHT22;6414;49.570;6.060;2023-05-07T15:31:12;19.00;99.90
12700;DHT22;6414;49.570;6.060;2023-05-07T15:33:59;19.00;99.90
12700;DHT22;6414;49.570;6.060;2023-05-07T15:36:45;18.90;99.90
12700;DHT22;6414;49.570;6.060;2023-05-07T15:39:31;18.90;99.90
12700;DHT22;6414;49.570;6.060;2023-05-07T15:42:18;19.10;99.90
12700;DHT22;6414;49.570;6.060;2023-05-07T15:45:05;19.20;99.90
12700;DHT22;6414;49.570;6.060;2023-05-07T15:47:51;19.20;99.90
12700;DHT22;6414;49.570;6.060;2023-05-07T15:50:37;19.20;99.90
12700;DHT22;6414;49.570;6.060;2023-05-07T15:53:24;19.10;99.90
12700;DHT22;6414;49.570;6.060;2023-05-07T15:56:10;19.00;99.90
12700;DHT22;6414;49.570;6.060;2023-05-07T15:58:56;18.70;99.90
12700;DHT22;6414;49.570;6.060;2023-05-07T16:01:42;18.70;99.90
12700;DHT22;6414;49.570;6.060;2023-05-07T16:04:29;18.60;99.90
12700;DHT22;6414;49.570;6.060;2023-05-07T16:07:15;18.50;99.90
12700;DHT22;6414;49.570;6.060;2023-05-07T16:10:01;18.40;99.90
12700;DHT22;6414;49.570;6.060;2023-05-07T16:12:47;18.30;99.90
12700;DHT22;6414;49.570;6.060;2023-05-07T16:15:34;18.10;99.90
12700;DHT22;6414;49.570;6.060;2023-05-07T16:18:20;18.00;99.90
12700;DHT22;6414;49.570;6.060;2023-05-07T16:21:06;17.60;99.90
12700;DHT22;6414;49.570;6.060;2023-05-07T16:23:52;17.60;99.90
12700;DHT22;6414;49.570;6.060;2023-05-07T16:26:38;17.60;99.90
12700;DHT22;6414;49.570;6.060;2023-05-07T16:29:24;17.50;99.90
12700;DHT22;6414;49.570;6.060;2023-05-07T16:32:12;17.50;99.90
12700;DHT22;6414;49.570;6.060;2023-05-07T16:34:58;17.40;99.90
12700;DHT22;6414;49.570;6.060;2023-05-07T16:37:44;17.30;99.90
12700;DHT22;6414;49.570;6.060;2023-05-07T16:40:30;17.00;99.90
12700;DHT22;6414;49.570;6.060;2023-05-07T16:43:17;16.80;99.90
12700;DHT22;6414;49.570;6.060;2023-05-07T16:46:03;16.80;99.90
12700;DHT22;6414;49.570;6.060;2023-05-07T16:48:49;16.60;99.90
12700;DHT22;6414;49.570;6.060;2023-05-07T16:51:35;16.60;99.90
12700;DHT22;6414;49.570;6.060;2023-05-07T16:54:22;16.40;99.90
12700;DHT22;6414;49.570;6.060;2023-05-07T16:57:08;16.20;99.90
12700;DHT22;6414;49.570;6.060;2023-05-07T16:59:54;15.90;99.90
12700;DHT22;6414;49.570;6.060;2023-05-07T17:02:40;15.80;99.90
12700;DHT22;6414;49.570;6.060;2023-05-07T17:05:26;15.60;99.90
12700;DHT22;6414;49.570;6.060;2023-05-07T17:08:12;15.50;99.90
12700;DHT22;6414;49.570;6.060;2023-05-07T17:10:58;15.50;99.90
12700;DHT22;6414;49.570;6.060;2023-05-07T17:13:44;15.40;99.90
12700;DHT22;6414;49.570;6.060;2023-05-07T17:16:29;15.40;99.90
12700;DHT22;6414;49.570;6.060;2023-05-07T17:19:15;15.20;99.90
12700;DHT22;6414;49.570;6.060;2023-05-07T17:22:01;15.10;99.90
12700;DHT22;6414;49.570;6.060;2023-05-07T17:24:47;15.00;99.90
12700;DHT22;6414;49.570;6.060;2023-05-07T17:27:33;14.90;99.90
12700;DHT22;6414;49.570;6.060;2023-05-07T17:30:19;14.90;99.90
12700;DHT22;6414;49.570;6.060;2023-05-07T17:33:06;15.00;99.90
12700;DHT22;6414;49.570;6.060;2023-05-07T17:35:51;15.00;99.90
12700;DHT22;6414;49.570;6.060;2023-05-07T17:38:37;14.90;99.90
12700;DHT22;6414;49.570;6.060;2023-05-07T17:41:23;14.90;99.90
12700;DHT22;6414;49.570;6.060;2023-05-07T17:44:10;14.80;99.90
12700;DHT22;6414;49.570;6.060;2023-05-07T17:46:56;14.80;99.90
12700;DHT22;6414;49.570;6.060;2023-05-07T17:49:43;14.80;99.90
12700;DHT22;6414;49.570;6.060;2023-05-07T17:52:29;14.80;99.90
12700;DHT22;6414;49.570;6.060;2023-05-07T17:55:15;14.80;99.90